createdAt,value
2023-10-19T00:01:29.796Z,70.69
2023-10-19T00:04:34.570Z,71.78
2023-10-19T00:07:42.170Z,70.93
2023-10-19T00:10:49.636Z,70.88
2023-10-19T00:13:52.802Z,71.35
2023-10-19T00:17:01.600Z,70.74
2023-10-19T00:20:23.225Z,70.70
2023-10-19T00:23:30.317Z,70.42
2023-10-19T00:26:33.340Z,70.88
2023-10-19T00:29:41.810Z,70.70
2023-10-19T00:32:44.696Z,70.47
2023-10-19T00:35:48.857Z,70.50
2023-10-19T00:38:54.441Z,70.89
2023-10-19T00:42:00.077Z,72.65
2023-10-19T00:45:06.612Z,72.08
2023-10-19T00:48:12.773Z,72.01
2023-10-19T00:51:28.749Z,72.55
2023-10-19T00:54:48.321Z,72.03
2023-10-19T00:57:51.546Z,71.62
2023-10-19T01:00:56.785Z,71.13
2023-10-19T01:04:07.175Z,71.21
2023-10-19T01:07:29.041Z,70.29
2023-10-19T01:10:33.603Z,70.75
2023-10-19T01:13:36.428Z,70.45
2023-10-19T01:16:40.508Z,70.93
2023-10-19T01:19:59.817Z,70.01
2023-10-19T01:23:10.163Z,70.68
2023-10-19T01:26:21.076Z,70.09
2023-10-19T01:29:37.855Z,69.90
2023-10-19T01:32:53.533Z,70.08
2023-10-19T01:36:15.086Z,70.00
2023-10-19T01:39:21.408Z,69.83
2023-10-19T01:42:27.368Z,69.45
2023-10-19T01:45:31.217Z,69.85
2023-10-19T01:48:37.504Z,69.82
2023-10-19T01:51:43.568Z,69.97
2023-10-19T01:54:46.925Z,70.02
2023-10-19T01:57:49.678Z,70.34
2023-10-19T02:01:04.491Z,69.90
2023-10-19T02:04:10.913Z,70.21
2023-10-19T02:07:19.477Z,70.35
2023-10-19T02:10:23.661Z,70.65
2023-10-19T02:13:26.483Z,69.93
2023-10-19T02:16:33.543Z,70.06
2023-10-19T02:19:36.259Z,70.71
2023-10-19T02:22:41.185Z,70.24
2023-10-19T02:25:44.384Z,70.29
2023-10-19T02:28:48.653Z,71.76
2023-10-19T02:31:52.069Z,71.65
2023-10-19T02:35:10.417Z,72.79
2023-10-19T02:38:13.226Z,73.52
2023-10-19T02:41:22.909Z,73.99
2023-10-19T02:44:33.611Z,74.81
2023-10-19T02:47:36.585Z,74.64
2023-10-19T02:50:43.183Z,76.24
2023-10-19T02:53:55.813Z,76.88
2023-10-19T02:57:08.682Z,78.43
2023-10-19T03:00:15.834Z,79.77
2023-10-19T03:03:18.878Z,79.65
2023-10-19T03:06:25.074Z,81.75
2023-10-19T03:09:27.882Z,82.77
2023-10-19T03:12:44.714Z,82.52
2023-10-19T03:15:47.503Z,82.92
2023-10-19T03:18:58.646Z,80.35
2023-10-19T03:22:07.522Z,79.76
2023-10-19T03:25:33.305Z,79.29
2023-10-19T03:28:36.979Z,78.30
2023-10-19T03:31:47.535Z,78.71
2023-10-19T03:34:55.249Z,79.48
2023-10-19T03:38:02.165Z,80.52
2023-10-19T03:41:10.064Z,80.15
2023-10-19T03:44:25.465Z,81.09
2023-10-19T03:47:41.239Z,81.89
2023-10-19T03:50:46.438Z,85.05
2023-10-19T03:53:56.353Z,84.65
2023-10-19T03:57:03.086Z,84.39
2023-10-19T04:00:12.846Z,83.62
2023-10-19T04:03:16.562Z,84.23
2023-10-19T04:06:21.984Z,85.80
2023-10-19T04:09:30.922Z,85.49
2023-10-19T04:12:36.920Z,86.82
2023-10-19T04:15:39.862Z,89.48
2023-10-19T04:18:47.680Z,89.31
2023-10-19T04:21:59.820Z,87.81
2023-10-19T04:25:04.380Z,86.66
2023-10-19T04:28:08.004Z,85.43
2023-10-19T04:31:15.293Z,84.57
2023-10-19T04:34:22.613Z,84.75
2023-10-19T04:37:25.853Z,83.76
2023-10-19T04:40:28.978Z,83.53
2023-10-19T04:43:42.573Z,83.29
2023-10-19T04:46:48.327Z,85.52
2023-10-19T04:49:53.317Z,84.17
2023-10-19T04:52:56.137Z,86.08
2023-10-19T04:56:02.722Z,85.60
2023-10-19T04:59:06.345Z,86.93
2023-10-19T05:02:09.159Z,85.43
2023-10-19T05:05:12.502Z,85.09
2023-10-19T05:08:17.718Z,84.68
2023-10-19T05:11:20.652Z,84.20
2023-10-19T05:14:26.748Z,83.65
2023-10-19T05:17:29.701Z,82.54
2023-10-19T05:20:34.959Z,83.19
2023-10-19T05:23:38.022Z,82.38
2023-10-19T05:26:41.102Z,82.85
2023-10-19T05:29:43.943Z,82.84
2023-10-19T05:32:51.256Z,82.89
2023-10-19T05:35:54.137Z,83.69
2023-10-19T05:38:59.384Z,84.37
2023-10-19T05:42:02.866Z,86.14
2023-10-19T05:45:09.632Z,85.20
2023-10-19T05:48:14.796Z,85.54
2023-10-19T05:51:20.349Z,85.75
2023-10-19T05:54:25.686Z,87.53
2023-10-19T05:57:29.749Z,86.96
2023-10-19T06:00:33.166Z,85.91
2023-10-19T06:03:36.166Z,87.47
2023-10-19T06:06:39.637Z,86.16
2023-10-19T06:09:42.492Z,86.04
2023-10-19T06:12:52.329Z,87.30
2023-10-19T06:15:55.655Z,89.33
2023-10-19T06:18:58.535Z,86.61
2023-10-19T06:22:01.532Z,86.02
2023-10-19T06:25:07.782Z,86.05
2023-10-19T06:28:13.742Z,87.16
2023-10-19T06:31:22.107Z,87.92
2023-10-19T06:34:26.871Z,87.52
2023-10-19T06:37:30.717Z,87.84
2023-10-19T06:40:40.980Z,87.67
2023-10-19T06:43:48.922Z,86.30
2023-10-19T06:46:56.082Z,87.24
2023-10-19T06:50:00.657Z,86.75
2023-10-19T06:53:07.159Z,87.13
2023-10-19T06:56:20.457Z,87.83
2023-10-19T06:59:26.965Z,87.74
2023-10-19T07:02:34.322Z,87.97
2023-10-19T07:05:41.682Z,88.40
2023-10-19T07:08:56.889Z,88.75
2023-10-19T07:12:04.867Z,88.64
2023-10-19T07:15:28.754Z,88.54
2023-10-19T07:18:34.926Z,86.65
2023-10-19T07:21:43.683Z,85.77
2023-10-19T07:24:50.218Z,87.58
2023-10-19T07:27:54.215Z,86.39
2023-10-19T07:31:01.387Z,87.13
2023-10-19T07:34:07.243Z,87.37
2023-10-19T07:37:16.864Z,88.42
2023-10-19T07:40:20.077Z,87.26
2023-10-19T07:43:29.898Z,86.65
2023-10-19T07:46:33.285Z,86.54
2023-10-19T07:49:42.900Z,85.75
2023-10-19T07:52:50.916Z,87.13
2023-10-19T07:55:54.396Z,87.81
2023-10-19T07:58:58.540Z,87.31
2023-10-19T08:02:03.780Z,86.74
2023-10-19T08:05:08.948Z,86.17
2023-10-19T08:08:15.597Z,85.94
2023-10-19T08:11:19.198Z,86.46
2023-10-19T08:14:27.975Z,86.12
2023-10-19T08:17:31.249Z,86.60
2023-10-19T08:20:39.201Z,87.32
2023-10-19T08:23:46.738Z,86.30
2023-10-19T08:26:49.480Z,86.72
2023-10-19T08:29:52.309Z,86.89
2023-10-19T08:32:55.643Z,88.52
2023-10-19T08:36:04.534Z,87.85
2023-10-19T08:39:09.056Z,91.28
2023-10-19T08:42:11.923Z,89.68
2023-10-19T08:45:15.383Z,89.53
2023-10-19T08:48:18.807Z,88.99
2023-10-19T08:51:21.525Z,88.41
2023-10-19T08:54:30.510Z,89.05
2023-10-19T08:57:33.517Z,88.89
2023-10-19T09:00:58.469Z,91.73
2023-10-19T09:07:57.824Z,91.02
2023-10-19T09:11:08.569Z,91.52
2023-10-19T09:14:14.177Z,91.58
2023-10-19T09:17:19.269Z,92.61
2023-10-19T09:20:31.425Z,92.04
2023-10-19T09:23:35.033Z,94.17
2023-10-19T09:26:38.520Z,95.34
2023-10-19T09:29:42.525Z,94.36
2023-10-19T09:32:50.771Z,94.68
2023-10-19T09:35:58.363Z,94.46
2023-10-19T09:39:04.524Z,92.15
2023-10-19T09:42:14.428Z,92.93
2023-10-19T09:45:21.254Z,93.10
2023-10-19T09:48:25.686Z,93.28
2023-10-19T09:51:36.237Z,93.01
2023-10-19T09:55:02.698Z,94.81
2023-10-19T09:58:17.716Z,96.28
2023-10-19T10:01:23.184Z,94.75
2023-10-19T10:04:33.283Z,93.96
2023-10-19T10:10:44.839Z,96.70
2023-10-19T10:13:52.636Z,97.25
2023-10-19T10:17:06.601Z,97.67
2023-10-19T10:20:18.743Z,97.50
2023-10-19T10:23:33.911Z,97.50
2023-10-19T10:26:59.603Z,97.44
2023-10-19T10:30:09.542Z,94.95
2023-10-19T10:33:43.088Z,94.07
2023-10-19T10:37:06.962Z,94.05
2023-10-19T10:40:10.618Z,94.19
2023-10-19T10:43:15.482Z,92.66
2023-10-19T10:46:18.406Z,91.06
2023-10-19T10:49:21.281Z,91.01
2023-10-19T10:52:36.184Z,90.69
2023-10-19T10:55:39.811Z,88.99
2023-10-19T10:58:46.433Z,88.39
2023-10-19T11:01:49.451Z,88.57
2023-10-19T11:04:52.189Z,88.59
2023-10-19T11:08:23.446Z,87.03
2023-10-19T11:11:27.832Z,87.66
2023-10-19T11:14:30.995Z,88.56
2023-10-19T11:17:34.216Z,88.87
2023-10-19T11:20:37.386Z,88.33
2023-10-19T11:23:49.570Z,87.23
2023-10-19T11:26:52.552Z,86.86
2023-10-19T11:30:08.786Z,87.27
2023-10-19T11:33:13.178Z,87.39
2023-10-19T11:36:20.357Z,87.49
2023-10-19T11:39:25.296Z,87.36
2023-10-19T11:42:28.297Z,89.17
2023-10-19T11:45:31.196Z,89.07
2023-10-19T11:48:35.420Z,89.49
2023-10-19T11:51:38.682Z,89.36
2023-10-19T11:54:41.356Z,89.58
2023-10-19T11:57:46.218Z,90.41
2023-10-19T12:00:49.181Z,90.48
2023-10-19T12:03:53.100Z,89.11
2023-10-19T12:06:56.813Z,91.34
2023-10-19T12:09:59.885Z,89.92
2023-10-19T12:13:09.087Z,89.70
2023-10-19T12:16:17.713Z,90.41
2023-10-19T12:19:21.181Z,89.79
2023-10-19T12:22:27.074Z,89.02
2023-10-19T12:25:49.941Z,89.72
2023-10-19T12:28:56.482Z,89.87
2023-10-19T12:31:59.352Z,89.05
2023-10-19T12:35:02.212Z,87.94
2023-10-19T12:38:07.672Z,88.94
2023-10-19T12:41:10.804Z,88.18
2023-10-19T12:44:13.897Z,87.90
2023-10-19T12:47:19.070Z,87.23
2023-10-19T12:50:24.201Z,87.25
2023-10-19T12:53:27.928Z,86.91
2023-10-19T12:56:30.813Z,86.26
2023-10-19T12:59:43.439Z,86.26
2023-10-19T13:02:46.242Z,85.95
2023-10-19T13:05:52.198Z,85.29
2023-10-19T13:08:54.994Z,85.58
2023-10-19T13:12:01.709Z,85.49
2023-10-19T13:15:15.034Z,86.22
2023-10-19T13:18:21.389Z,86.11
2023-10-19T13:21:29.516Z,86.17
2023-10-19T13:24:33.544Z,86.03
2023-10-19T13:27:36.878Z,85.86
2023-10-19T13:30:50.184Z,87.11
2023-10-19T13:33:56.251Z,86.84
2023-10-19T13:37:01.821Z,86.30
2023-10-19T13:40:07.916Z,85.79
2023-10-19T13:43:15.357Z,86.47
2023-10-19T13:46:21.780Z,86.49
2023-10-19T13:49:24.663Z,86.39
2023-10-19T13:52:27.758Z,86.94
2023-10-19T13:55:31.507Z,87.24
2023-10-19T13:58:34.704Z,86.90
2023-10-19T14:01:37.654Z,86.91
2023-10-19T14:04:40.566Z,86.83
2023-10-19T14:07:48.191Z,86.65
2023-10-19T14:10:53.218Z,87.08
2023-10-19T14:13:56.625Z,86.97
2023-10-19T14:17:00.009Z,88.32
2023-10-19T14:20:03.018Z,88.71
2023-10-19T14:23:06.377Z,88.72
2023-10-19T14:26:11.727Z,88.26
2023-10-19T14:29:15.053Z,87.82
2023-10-19T14:32:18.276Z,87.11
2023-10-19T14:35:24.423Z,87.59
2023-10-19T14:38:28.942Z,88.08
2023-10-19T14:41:34.544Z,88.37
2023-10-19T14:44:37.717Z,88.10
2023-10-19T14:47:45.071Z,88.47
2023-10-19T14:50:48.983Z,89.28
2023-10-19T14:53:51.872Z,89.33
2023-10-19T14:56:54.818Z,89.24
2023-10-19T15:00:16.618Z,90.51
2023-10-19T15:03:20.840Z,89.91
2023-10-19T15:06:33.106Z,89.87
2023-10-19T15:09:38.904Z,91.82
2023-10-19T15:12:45.486Z,90.29
2023-10-19T15:15:48.470Z,90.01
2023-10-19T15:18:54.286Z,90.83
2023-10-19T15:21:56.996Z,90.39
2023-10-19T15:25:05.467Z,89.99
2023-10-19T15:28:11.348Z,89.64
2023-10-19T15:31:14.796Z,89.85
2023-10-19T15:34:21.496Z,89.08
2023-10-19T15:37:24.437Z,89.43
2023-10-19T15:40:30.507Z,89.50
2023-10-19T15:43:33.386Z,89.79
2023-10-19T15:46:40.987Z,89.67
2023-10-19T15:50:00.229Z,89.70
2023-10-19T15:53:03.095Z,89.80
2023-10-19T15:56:06.042Z,89.39
2023-10-19T15:59:09.378Z,89.61
2023-10-19T16:02:12.969Z,89.75
2023-10-19T16:05:17.225Z,89.52
2023-10-19T16:08:20.115Z,89.53
2023-10-19T16:11:24.818Z,89.06
2023-10-19T16:14:28.192Z,89.16
2023-10-19T16:17:31.324Z,89.19
2023-10-19T16:20:36.549Z,89.66
2023-10-19T16:23:40.481Z,89.07
2023-10-19T16:26:43.437Z,89.26
2023-10-19T16:29:46.283Z,89.58
2023-10-19T16:32:49.303Z,88.74
2023-10-19T16:36:00.912Z,89.29
2023-10-19T16:39:03.978Z,91.18
2023-10-19T16:42:07.350Z,92.02
2023-10-19T16:45:13.231Z,91.47
2023-10-19T16:48:16.186Z,90.82
2023-10-19T16:51:19.365Z,91.11
2023-10-19T16:54:22.455Z,91.61
2023-10-19T16:57:29.011Z,92.83
2023-10-19T17:00:33.417Z,92.46
2023-10-19T17:03:37.576Z,92.48
2023-10-19T17:06:44.142Z,92.26
2023-10-19T17:09:49.179Z,92.58
2023-10-19T17:12:52.056Z,92.96
2023-10-19T17:15:56.049Z,92.78
2023-10-19T17:18:59.694Z,92.52
2023-10-19T17:22:03.751Z,93.37
2023-10-19T17:25:09.202Z,93.45
2023-10-19T17:28:12.736Z,93.01
2023-10-19T17:31:15.974Z,93.56
2023-10-19T17:34:21.750Z,94.78
2023-10-19T17:37:25.621Z,94.48
2023-10-19T17:40:28.929Z,94.82
2023-10-19T17:43:32.013Z,94.61
2023-10-19T17:46:36.153Z,94.83
2023-10-19T17:49:39.045Z,94.63
2023-10-19T17:52:45.473Z,95.57
2023-10-19T17:55:48.504Z,95.21
2023-10-19T17:58:53.789Z,94.81
2023-10-19T18:01:56.937Z,94.90
2023-10-19T18:05:02.303Z,95.09
2023-10-19T18:08:05.750Z,95.40
2023-10-19T18:11:15.141Z,95.83
2023-10-19T18:14:19.382Z,95.25
2023-10-19T18:17:24.907Z,95.11
2023-10-19T18:20:32.564Z,95.57
2023-10-19T18:23:36.566Z,95.24
2023-10-19T18:26:47.370Z,94.79
2023-10-19T18:29:50.811Z,94.89
2023-10-19T18:32:53.988Z,94.80
2023-10-19T18:36:06.391Z,94.20
2023-10-19T18:39:10.524Z,93.40
2023-10-19T18:42:13.994Z,93.76
2023-10-19T18:45:16.860Z,92.82
2023-10-19T18:48:19.746Z,92.88
2023-10-19T18:51:22.730Z,93.08
2023-10-19T18:54:26.525Z,92.63
2023-10-19T18:57:33.937Z,91.75
2023-10-19T19:00:38.662Z,91.64
2023-10-19T19:03:49.011Z,90.83
2023-10-19T19:06:53.127Z,90.58
2023-10-19T19:09:57.858Z,90.79
2023-10-19T19:13:01.319Z,90.96
2023-10-19T19:16:04.866Z,91.71
2023-10-19T19:19:10.224Z,91.72
2023-10-19T19:22:13.349Z,90.83
2023-10-19T19:25:18.609Z,90.88
2023-10-19T19:28:21.631Z,90.94
2023-10-19T19:31:27.580Z,91.72
2023-10-19T19:34:30.706Z,91.31
2023-10-19T19:37:39.355Z,91.19
2023-10-19T19:40:42.621Z,91.89
2023-10-19T19:43:45.901Z,91.48
2023-10-19T19:46:50.454Z,91.56
2023-10-19T19:49:53.246Z,91.23
2023-10-19T19:52:56.381Z,90.92
2023-10-19T19:56:01.702Z,90.69
2023-10-19T19:59:04.830Z,92.09
2023-10-19T20:02:10.180Z,91.98
2023-10-19T20:05:18.839Z,90.99
2023-10-19T20:08:24.229Z,91.75
2023-10-19T20:11:27.149Z,92.37
2023-10-19T20:14:30.012Z,91.76
2023-10-19T20:17:34.417Z,92.45
2023-10-19T20:20:37.363Z,92.42
2023-10-19T20:23:40.272Z,91.63
2023-10-19T20:26:44.046Z,91.17
2023-10-19T20:29:49.366Z,91.92
2023-10-19T20:32:57.014Z,92.47
2023-10-19T20:36:00.020Z,91.78
2023-10-19T20:39:04.174Z,90.68
2023-10-19T20:42:07.021Z,91.48
2023-10-19T20:45:10.859Z,91.18
2023-10-19T20:48:13.595Z,90.21
2023-10-19T20:51:20.435Z,91.91
2023-10-19T20:54:23.458Z,92.75
2023-10-19T20:57:26.451Z,93.19
2023-10-19T21:00:29.194Z,92.06
2023-10-19T21:03:32.099Z,92.67
2023-10-19T21:06:37.981Z,94.31
2023-10-19T21:09:40.659Z,94.88
2023-10-19T21:12:47.595Z,95.43
2023-10-19T21:15:51.189Z,94.59
2023-10-19T21:18:54.143Z,92.67
2023-10-19T21:21:57.157Z,91.10
2023-10-19T21:25:01.720Z,91.92
2023-10-19T21:28:05.569Z,92.67
2023-10-19T21:31:11.984Z,92.21
2023-10-19T21:34:15.060Z,92.11
2023-10-19T21:37:30.662Z,91.19
2023-10-19T21:40:33.723Z,91.50
2023-10-19T21:43:40.645Z,91.62
2023-10-19T21:46:43.328Z,92.16
2023-10-19T21:49:50.770Z,92.45
2023-10-19T21:52:53.723Z,92.09
2023-10-19T21:56:00.136Z,93.29
2023-10-19T21:59:03.039Z,93.26
2023-10-19T22:02:06.256Z,94.10
2023-10-19T22:05:22.066Z,94.53
2023-10-19T22:08:30.509Z,93.91
2023-10-19T22:11:35.587Z,94.99
2023-10-19T22:14:38.830Z,95.52
2023-10-19T22:17:41.569Z,94.40
2023-10-19T22:20:47.546Z,94.76
2023-10-19T22:23:50.612Z,94.13
2023-10-19T22:26:53.439Z,93.83
2023-10-19T22:29:56.839Z,93.57
2023-10-19T22:33:03.864Z,93.35
2023-10-19T22:36:06.705Z,93.99
2023-10-19T22:39:10.457Z,94.41
2023-10-19T22:42:13.977Z,93.73
2023-10-19T22:45:18.181Z,94.56
2023-10-19T22:48:20.905Z,96.80
2023-10-19T22:51:23.823Z,96.98
2023-10-19T22:54:28.936Z,95.89
2023-10-19T22:57:32.331Z,94.66
2023-10-19T23:00:35.340Z,93.53
2023-10-19T23:03:41.591Z,92.83
2023-10-19T23:06:44.282Z,92.65
2023-10-19T23:09:47.314Z,93.08
2023-10-19T23:12:52.685Z,92.94
2023-10-19T23:15:56.951Z,93.81
2023-10-19T23:19:01.370Z,93.80
2023-10-19T23:22:04.270Z,93.93
2023-10-19T23:25:10.598Z,94.22
2023-10-19T23:28:15.769Z,92.74
2023-10-19T23:31:24.951Z,94.24
2023-10-19T23:34:27.799Z,94.30
2023-10-19T23:37:33.469Z,93.54
2023-10-19T23:40:36.528Z,94.70
2023-10-19T23:43:39.420Z,95.63
2023-10-19T23:46:42.247Z,95.43
2023-10-19T23:49:46.370Z,94.69
2023-10-19T23:52:49.198Z,95.76
2023-10-19T23:55:53.047Z,95.08
2023-10-19T23:58:58.624Z,96.18
